Inversion Research: Below Escarpment

*Note: All times are displayed in the local standard time of the station location.
**Rain - Equipment is designed to accurately record liquid precipitation; under conditions when precipitation is not in liquid form, the data displayed may not properly reflect rainfall values.

Date Max Temp
(°C)
Min Temp
(°C)
Avg Temp
(°C)
Rain (mm) Avg RH (%)
Thu, Jul 18, 2019 29.2 21.1 24.9 - 92.6
Wed, Jul 17, 2019 28.4 21.9 24.1 - 98.1
Tue, Jul 16, 2019 31.7 20.7 25.5 - 82.1
Mon, Jul 15, 2019 29.7 12.9 22.1 - 74.4
Sun, Jul 14, 2019 28.2 17.0 22.7 - 68.7
Sat, Jul 13, 2019 29.9 15.8 23.4 - 81.3
Fri, Jul 12, 2019 23.8 17.8 20.5 - 83.5
DateTime Avg Temp (°C) Rain (mm) RH (%)
Fri, Jul 19, 2019 10:00 28.7 - 92.2
Fri, Jul 19, 2019 09:00 27.6 - 94.8
Fri, Jul 19, 2019 08:00 26.2 - 98.6
Fri, Jul 19, 2019 07:00 25.1 - 99.9
Fri, Jul 19, 2019 06:00 25.0 - 99.3
Fri, Jul 19, 2019 05:00 25.0 - 96.7
Fri, Jul 19, 2019 04:00 25.1 - 94.1
Fri, Jul 19, 2019 03:00 24.9 - 94.3
Fri, Jul 19, 2019 02:00 24.3 - 95.2
Fri, Jul 19, 2019 01:00 23.7 - 94.9
Fri, Jul 19, 2019 00:00 23.4 - 99.3
Thu, Jul 18, 2019 23:00 23.6 - 99.9
Thu, Jul 18, 2019 22:00 24.4 - 96.4
Thu, Jul 18, 2019 21:00 25.7 - 83.7
Thu, Jul 18, 2019 20:00 27.9 - 72.3
Thu, Jul 18, 2019 19:00 28.8 - 80.9
Thu, Jul 18, 2019 18:00 28.8 - 80.6
Thu, Jul 18, 2019 17:00 28.2 - 84.0
Thu, Jul 18, 2019 16:00 27.2 - 90.3
Thu, Jul 18, 2019 15:00 27.4 - 90.5
Thu, Jul 18, 2019 14:00 27.5 - 88.8
Thu, Jul 18, 2019 13:00 28.0 - 82.8
Thu, Jul 18, 2019 12:00 27.4 - 83.4
Thu, Jul 18, 2019 11:00 26.4 - 91.1
Thu, Jul 18, 2019 10:00 24.6 - 99.5
Thu, Jul 18, 2019 09:00 23.1 - 99.9
Thu, Jul 18, 2019 08:00 22.4 - 99.9
Thu, Jul 18, 2019 07:00 22.1 - 99.9
Thu, Jul 18, 2019 06:00 22.1 - 99.9
Thu, Jul 18, 2019 05:00 22.1 - 99.9
Thu, Jul 18, 2019 04:00 22.2 - 99.9
Thu, Jul 18, 2019 03:00 21.7 - 99.9
Thu, Jul 18, 2019 02:00 21.2 - 99.9
Thu, Jul 18, 2019 01:00 21.5 - 99.9
Thu, Jul 18, 2019 00:00 22.2 - 99.9
Wed, Jul 17, 2019 23:00 22.7 - 99.9
Wed, Jul 17, 2019 22:00 23.1 - 99.9
Wed, Jul 17, 2019 21:00 24.6 - 99.8
Wed, Jul 17, 2019 20:00 25.9 - 95.0
Wed, Jul 17, 2019 19:00 27.2 - 91.5
Wed, Jul 17, 2019 18:00 28.0 - 88.1
Wed, Jul 17, 2019 17:00 28.1 - 86.5
Wed, Jul 17, 2019 16:00 26.8 - 94.6
Wed, Jul 17, 2019 15:00 25.6 - 99.6
Wed, Jul 17, 2019 14:00 24.9 - 99.9
Wed, Jul 17, 2019 13:00 24.1 - 99.9
Wed, Jul 17, 2019 12:00 23.6 - 99.9
Wed, Jul 17, 2019 11:00 23.5 - 99.9


asterix Register now to access more data! asterix